sensor_id;sensor_type;location;lat;lon;timestamp;pressure;altitude;pressure_sealevel;temperature;humidity
75699;BME280;64313;51.018;13.742;2023-04-24T00:00:54;98479.66;;;13.16;70.64
75699;BME280;64313;51.018;13.742;2023-04-24T00:03:24;98475.59;;;13.14;70.69
75699;BME280;64313;51.018;13.742;2023-04-24T00:05:50;98468.06;;;13.11;70.70
75699;BME280;64313;51.018;13.742;2023-04-24T00:08:16;98466.69;;;13.08;70.45
75699;BME280;64313;51.018;13.742;2023-04-24T00:10:42;98460.75;;;13.06;70.97
75699;BME280;64313;51.018;13.742;2023-04-24T00:13:07;98467.16;;;13.05;71.39
75699;BME280;64313;51.018;13.742;2023-04-24T00:15:33;98461.25;;;13.03;71.34
75699;BME280;64313;51.018;13.742;2023-04-24T00:17:58;98469.28;;;13.03;71.46
75699;BME280;64313;51.018;13.742;2023-04-24T00:20:24;98470.59;;;13.01;71.86
75699;BME280;64313;51.018;13.742;2023-04-24T00:22:50;98476.69;;;12.96;71.48
75699;BME280;64313;51.018;13.742;2023-04-24T00:25:15;98485.53;;;12.96;70.77
75699;BME280;64313;51.018;13.742;2023-04-24T00:27:41;98492.44;;;12.92;72.39
75699;BME280;64313;51.018;13.742;2023-04-24T00:30:07;98484.09;;;12.89;72.20
75699;BME280;64313;51.018;13.742;2023-04-24T00:32:32;98482.69;;;12.86;72.53
75699;BME280;64313;51.018;13.742;2023-04-24T00:34:57;98486.69;;;12.84;72.61
75699;BME280;64313;51.018;13.742;2023-04-24T00:37:23;98481.31;;;12.84;72.60
75699;BME280;64313;51.018;13.742;2023-04-24T00:39:48;98479.72;;;12.83;72.76
75699;BME280;64313;51.018;13.742;2023-04-24T00:42:14;98479.72;;;12.83;72.16
75699;BME280;64313;51.018;13.742;2023-04-24T00:44:40;98478.88;;;12.82;72.96
75699;BME280;64313;51.018;13.742;2023-04-24T00:47:05;98474.59;;;12.81;72.68
75699;BME280;64313;51.018;13.742;2023-04-24T00:49:31;98475.66;;;12.80;72.98
75699;BME280;64313;51.018;13.742;2023-04-24T00:51:56;98471.09;;;12.81;72.93
75699;BME280;64313;51.018;13.742;2023-04-24T00:54:26;98473.78;;;12.81;72.91
75699;BME280;64313;51.018;13.742;2023-04-24T00:56:51;98469.22;;;12.81;72.77
75699;BME280;64313;51.018;13.742;2023-04-24T00:59:17;98467.34;;;12.82;73.23
75699;BME280;64313;51.018;13.742;2023-04-24T01:01:43;98463.84;;;12.81;73.13
75699;BME280;64313;51.018;13.742;2023-04-24T01:04:11;98459.78;;;12.78;73.05
75699;BME280;64313;51.018;13.742;2023-04-24T01:06:38;98465.97;;;12.79;73.34
75699;BME280;64313;51.018;13.742;2023-04-24T01:09:04;98461.41;;;12.80;73.47
75699;BME280;64313;51.018;13.742;2023-04-24T01:11:30;98462.25;;;12.80;72.96
75699;BME280;64313;51.018;13.742;2023-04-24T01:13:56;98464.09;;;12.80;73.01
75699;BME280;64313;51.018;13.742;2023-04-24T01:16:22;98468.41;;;12.81;72.19
75699;BME280;64313;51.018;13.742;2023-04-24T01:18:47;98469.44;;;12.80;72.48
75699;BME280;64313;51.018;13.742;2023-04-24T01:21:14;98472.41;;;12.78;73.12
75699;BME280;64313;51.018;13.742;2023-04-24T01:23:43;98474.50;;;12.76;72.86
75699;BME280;64313;51.018;13.742;2023-04-24T01:26:09;98483.59;;;12.75;73.49
75699;BME280;64313;51.018;13.742;2023-04-24T01:28:34;98485.94;;;12.71;73.61
75699;BME280;64313;51.018;13.742;2023-04-24T01:31:00;98481.66;;;12.70;73.63
75699;BME280;64313;51.018;13.742;2023-04-24T01:33:25;98484.34;;;12.70;73.87
75699;BME280;64313;51.018;13.742;2023-04-24T01:35:51;98472.78;;;12.70;74.01
75699;BME280;64313;51.018;13.742;2023-04-24T01:38:16;98477.34;;;12.69;73.70
75699;BME280;64313;51.018;13.742;2023-04-24T01:40:41;98475.22;;;12.71;73.65
75699;BME280;64313;51.018;13.742;2023-04-24T01:43:06;98473.13;;;12.73;73.49
75699;BME280;64313;51.018;13.742;2023-04-24T01:45:32;98473.13;;;12.73;73.77
75699;BME280;64313;51.018;13.742;2023-04-24T01:47:58;98474.16;;;12.72;73.74
75699;BME280;64313;51.018;13.742;2023-04-24T01:50:24;98467.19;;;12.71;73.75
75699;BME280;64313;51.018;13.742;2023-04-24T01:52:49;98470.44;;;12.73;73.70
75699;BME280;64313;51.018;13.742;2023-04-24T01:55:16;98468.00;;;12.72;73.92
75699;BME280;64313;51.018;13.742;2023-04-24T01:57:44;98462.41;;;12.73;73.72
75699;BME280;64313;51.018;13.742;2023-04-24T02:00:10;98468.00;;;12.72;74.31
75699;BME280;64313;51.018;13.742;2023-04-24T02:02:40;98463.13;;;12.69;74.18
75699;BME280;64313;51.018;13.742;2023-04-24T02:05:06;98460.44;;;12.69;73.95
75699;BME280;64313;51.018;13.742;2023-04-24T02:07:35;98470.94;;;12.70;74.09
75699;BME280;64313;51.018;13.742;2023-04-24T02:10:00;98457.75;;;12.69;74.07
75699;BME280;64313;51.018;13.742;2023-04-24T02:12:27;98460.66;;;12.67;73.84
75699;BME280;64313;51.018;13.742;2023-04-24T02:14:52;98459.88;;;12.67;73.99
75699;BME280;64313;51.018;13.742;2023-04-24T02:17:17;98454.50;;;12.67;74.43
75699;BME280;64313;51.018;13.742;2023-04-24T02:19:44;98455.56;;;12.66;73.45
75699;BME280;64313;51.018;13.742;2023-04-24T02:22:09;98456.06;;;12.63;74.58
75699;BME280;64313;51.018;13.742;2023-04-24T02:24:36;98466.53;;;12.64;74.21
75699;BME280;64313;51.018;13.742;2023-04-24T02:27:01;98457.91;;;12.62;73.89
75699;BME280;64313;51.018;13.742;2023-04-24T02:29:28;98463.28;;;12.62;74.23
75699;BME280;64313;51.018;13.742;2023-04-24T02:31:53;98469.69;;;12.61;73.82
75699;BME280;64313;51.018;13.742;2023-04-24T02:34:18;98463.75;;;12.59;74.60
75699;BME280;64313;51.018;13.742;2023-04-24T02:36:44;98468.56;;;12.57;74.95
75699;BME280;64313;51.018;13.742;2023-04-24T02:39:09;98464.25;;;12.56;75.36
75699;BME280;64313;51.018;13.742;2023-04-24T02:41:34;98463.69;;;12.54;74.66
75699;BME280;64313;51.018;13.742;2023-04-24T02:43:59;98461.81;;;12.54;74.73
75699;BME280;64313;51.018;13.742;2023-04-24T02:46:25;98462.06;;;12.53;74.87
75699;BME280;64313;51.018;13.742;2023-04-24T02:48:51;98463.09;;;12.52;74.75
75699;BME280;64313;51.018;13.742;2023-04-24T02:51:16;98458.00;;;12.50;75.20
75699;BME280;64313;51.018;13.742;2023-04-24T02:53:41;98460.69;;;12.50;75.51
75699;BME280;64313;51.018;13.742;2023-04-24T02:56:07;98457.19;;;12.50;74.35
75699;BME280;64313;51.018;13.742;2023-04-24T02:58:32;98454.53;;;12.50;75.28
75699;BME280;64313;51.018;13.742;2023-04-24T03:00:57;98453.69;;;12.49;75.01
75699;BME280;64313;51.018;13.742;2023-04-24T03:03:23;98456.63;;;12.48;75.66
75699;BME280;64313;51.018;13.742;2023-04-24T03:05:49;98454.19;;;12.46;75.24
75699;BME280;64313;51.018;13.742;2023-04-24T03:08:16;98462.47;;;12.45;75.33
75699;BME280;64313;51.018;13.742;2023-04-24T03:10:41;98461.91;;;12.43;75.35
75699;BME280;64313;51.018;13.742;2023-04-24T03:13:07;98458.38;;;12.42;75.37
75699;BME280;64313;51.018;13.742;2023-04-24T03:15:33;98455.69;;;12.42;75.33
75699;BME280;64313;51.018;13.742;2023-04-24T03:17:58;98453.84;;;12.43;75.05
75699;BME280;64313;51.018;13.742;2023-04-24T03:20:24;98446.84;;;12.42;75.26
75699;BME280;64313;51.018;13.742;2023-04-24T03:22:49;98455.47;;;12.44;75.54
75699;BME280;64313;51.018;13.742;2023-04-24T03:25:15;98459.22;;;12.43;74.80
75699;BME280;64313;51.018;13.742;2023-04-24T03:27:40;98461.06;;;12.42;74.99
75699;BME280;64313;51.018;13.742;2023-04-24T03:30:16;98464.59;;;12.43;75.42
75699;BME280;64313;51.018;13.742;2023-04-24T03:32:49;98462.13;;;12.41;74.66
75699;BME280;64313;51.018;13.742;2023-04-24T03:35:20;98459.69;;;12.40;75.06
75699;BME280;64313;51.018;13.742;2023-04-24T03:37:47;98460.97;;;12.37;75.33
75699;BME280;64313;51.018;13.742;2023-04-24T03:40:36;98467.97;;;12.38;75.45
75699;BME280;64313;51.018;13.742;2023-04-24T03:43:04;98463.91;;;12.36;74.41
75699;BME280;64313;51.018;13.742;2023-04-24T03:45:30;98473.00;;;12.34;74.71
75699;BME280;64313;51.018;13.742;2023-04-24T03:47:56;98467.09;;;12.32;74.32
75699;BME280;64313;51.018;13.742;2023-04-24T03:50:21;98474.63;;;12.36;74.16
75699;BME280;64313;51.018;13.742;2023-04-24T03:52:47;98477.31;;;12.36;74.19
75699;BME280;64313;51.018;13.742;2023-04-24T03:55:22;98474.63;;;12.36;74.54
75699;BME280;64313;51.018;13.742;2023-04-24T03:57:47;98476.50;;;12.35;74.31
75699;BME280;64313;51.018;13.742;2023-04-24T04:00:20;98489.91;;;12.35;74.25
75699;BME280;64313;51.018;13.742;2023-04-24T04:02:52;98488.03;;;12.36;73.93
75699;BME280;64313;51.018;13.742;2023-04-24T04:05:17;98492.31;;;12.37;73.62
75699;BME280;64313;51.018;13.742;2023-04-24T04:07:43;98496.66;;;12.38;73.46
75699;BME280;64313;51.018;13.742;2023-04-24T04:10:08;98492.91;;;12.39;73.42
75699;BME280;64313;51.018;13.742;2023-04-24T04:12:35;98491.84;;;12.40;73.18
75699;BME280;64313;51.018;13.742;2023-04-24T04:15:01;98488.13;;;12.41;72.75
75699;BME280;64313;51.018;13.742;2023-04-24T04:17:28;98490.81;;;12.41;72.47
75699;BME280;64313;51.018;13.742;2023-04-24T04:19:53;98492.69;;;12.40;72.83
75699;BME280;64313;51.018;13.742;2023-04-24T04:22:19;98492.69;;;12.40;72.80
75699;BME280;64313;51.018;13.742;2023-04-24T04:24:47;98491.59;;;12.41;72.70
75699;BME280;64313;51.018;13.742;2023-04-24T04:27:13;98494.28;;;12.41;72.21
75699;BME280;64313;51.018;13.742;2023-04-24T04:29:56;98496.75;;;12.43;72.31
75699;BME280;64313;51.018;13.742;2023-04-24T04:32:22;98490.53;;;12.42;72.12
75699;BME280;64313;51.018;13.742;2023-04-24T04:34:47;98500.00;;;12.45;71.87
75699;BME280;64313;51.018;13.742;2023-04-24T04:37:14;98496.47;;;12.44;71.85
75699;BME280;64313;51.018;13.742;2023-04-24T04:39:51;98497.31;;;12.45;71.48
75699;BME280;64313;51.018;13.742;2023-04-24T04:42:21;98492.75;;;12.45;70.86
75699;BME280;64313;51.018;13.742;2023-04-24T04:44:48;98500.31;;;12.48;70.21
75699;BME280;64313;51.018;13.742;2023-04-24T04:47:20;98494.72;;;12.50;70.51
75699;BME280;64313;51.018;13.742;2023-04-24T04:49:46;98486.69;;;12.50;70.08
75699;BME280;64313;51.018;13.742;2023-04-24T04:52:20;98493.16;;;12.54;70.71
75699;BME280;64313;51.018;13.742;2023-04-24T04:54:52;98498.28;;;12.55;70.01
75699;BME280;64313;51.018;13.742;2023-04-24T04:57:18;98499.69;;;12.58;70.39
75699;BME280;64313;51.018;13.742;2023-04-24T04:59:44;98498.03;;;12.57;70.28
75699;BME280;64313;51.018;13.742;2023-04-24T05:02:15;98505.84;;;12.59;70.00
75699;BME280;64313;51.018;13.742;2023-04-24T05:04:41;98505.03;;;12.58;70.20
75699;BME280;64313;51.018;13.742;2023-04-24T05:07:06;98502.94;;;12.60;69.98
75699;BME280;64313;51.018;13.742;2023-04-24T05:09:34;98507.22;;;12.61;70.28
75699;BME280;64313;51.018;13.742;2023-04-24T05:12:03;98512.91;;;12.65;70.22
75699;BME280;64313;51.018;13.742;2023-04-24T05:14:33;98504.63;;;12.66;70.18
75699;BME280;64313;51.018;13.742;2023-04-24T05:16:58;98502.75;;;12.67;69.01
75699;BME280;64313;51.018;13.742;2023-04-24T05:19:25;98506.03;;;12.69;68.93
75699;BME280;64313;51.018;13.742;2023-04-24T05:21:50;98508.47;;;12.70;69.24
75699;BME280;64313;51.018;13.742;2023-04-24T05:24:16;98506.34;;;12.72;69.29
75699;BME280;64313;51.018;13.742;2023-04-24T05:26:58;98511.22;;;12.75;68.74
75699;BME280;64313;51.018;13.742;2023-04-24T05:29:30;98509.94;;;12.78;69.24
75699;BME280;64313;51.018;13.742;2023-04-24T05:31:56;98507.81;;;12.80;69.27
75699;BME280;64313;51.018;13.742;2023-04-24T05:34:23;98501.63;;;12.80;70.39
75699;BME280;64313;51.018;13.742;2023-04-24T05:36:52;98504.88;;;12.82;69.38
75699;BME280;64313;51.018;13.742;2023-04-24T05:39:19;98507.34;;;12.83;69.29
75699;BME280;64313;51.018;13.742;2023-04-24T05:41:45;98506.03;;;12.86;68.68
75699;BME280;64313;51.018;13.742;2023-04-24T05:44:10;98507.66;;;12.87;69.28
75699;BME280;64313;51.018;13.742;2023-04-24T05:46:35;98514.38;;;12.89;68.77
75699;BME280;64313;51.018;13.742;2023-04-24T05:49:01;98506.91;;;12.91;68.84
75699;BME280;64313;51.018;13.742;2023-04-24T05:51:27;98506.69;;;12.93;68.52
75699;BME280;64313;51.018;13.742;2023-04-24T05:53:53;98506.44;;;12.94;68.97
75699;BME280;64313;51.018;13.742;2023-04-24T05:56:18;98513.16;;;12.97;68.98
75699;BME280;64313;51.018;13.742;2023-04-24T05:58:45;98504.91;;;12.98;68.99
75699;BME280;64313;51.018;13.742;2023-04-24T06:01:13;98510.25;;;12.98;68.36
75699;BME280;64313;51.018;13.742;2023-04-24T06:03:40;98515.94;;;13.02;68.59
75699;BME280;64313;51.018;13.742;2023-04-24T06:06:06;98514.06;;;13.03;68.24
75699;BME280;64313;51.018;13.742;2023-04-24T06:08:33;98506.00;;;13.03;68.33
75699;BME280;64313;51.018;13.742;2023-04-24T06:11:00;98511.94;;;13.05;67.99
75699;BME280;64313;51.018;13.742;2023-04-24T06:13:25;98512.03;;;13.10;68.01
75699;BME280;64313;51.018;13.742;2023-04-24T06:16:10;98506.44;;;13.11;67.43
75699;BME280;64313;51.018;13.742;2023-04-24T06:18:39;98514.25;;;13.13;67.24
75699;BME280;64313;51.018;13.742;2023-04-24T06:21:04;98520.50;;;13.18;67.47
75699;BME280;64313;51.018;13.742;2023-04-24T06:23:30;98520.78;;;13.22;66.11
75699;BME280;64313;51.018;13.742;2023-04-24T06:25:58;98517.41;;;13.27;66.40
75699;BME280;64313;51.018;13.742;2023-04-24T06:28:23;98518.28;;;13.32;66.41
75699;BME280;64313;51.018;13.742;2023-04-24T06:30:48;98527.72;;;13.35;66.28
75699;BME280;64313;51.018;13.742;2023-04-24T06:33:13;98524.53;;;13.38;65.86
75699;BME280;64313;51.018;13.742;2023-04-24T06:35:39;98525.69;;;13.42;65.77
75699;BME280;64313;51.018;13.742;2023-04-24T06:38:04;98535.09;;;13.45;65.87
75699;BME280;64313;51.018;13.742;2023-04-24T06:40:30;98527.13;;;13.50;65.54
75699;BME280;64313;51.018;13.742;2023-04-24T06:42:55;98525.00;;;13.52;64.71
75699;BME280;64313;51.018;13.742;2023-04-24T06:45:21;98519.13;;;13.55;65.28
75699;BME280;64313;51.018;13.742;2023-04-24T06:47:46;98514.09;;;13.58;65.25
75699;BME280;64313;51.018;13.742;2023-04-24T06:50:12;98518.72;;;13.63;65.36
75699;BME280;64313;51.018;13.742;2023-04-24T06:52:37;98514.47;;;13.67;65.35
75699;BME280;64313;51.018;13.742;2023-04-24T06:55:03;98532.53;;;13.72;64.62
75699;BME280;64313;51.018;13.742;2023-04-24T06:57:29;98528.28;;;13.76;64.79
75699;BME280;64313;51.018;13.742;2023-04-24T06:59:55;98519.47;;;13.80;64.64
75699;BME280;64313;51.018;13.742;2023-04-24T07:02:20;98517.41;;;13.88;64.75
75699;BME280;64313;51.018;13.742;2023-04-24T07:04:45;98520.97;;;13.93;64.35
75699;BME280;64313;51.018;13.742;2023-04-24T07:07:12;98523.22;;;14.01;63.50
75699;BME280;64313;51.018;13.742;2023-04-24T07:09:39;98526.78;;;14.07;63.84
75699;BME280;64313;51.018;13.742;2023-04-24T07:12:06;98527.66;;;14.13;63.88
75699;BME280;64313;51.018;13.742;2023-04-24T07:14:32;98532.03;;;14.19;62.05
75699;BME280;64313;51.018;13.742;2023-04-24T07:16:58;98530.44;;;14.23;63.12
75699;BME280;64313;51.018;13.742;2023-04-24T07:19:24;98540.69;;;14.26;62.43
75699;BME280;64313;51.018;13.742;2023-04-24T07:21:49;98540.19;;;14.29;62.19
75699;BME280;64313;51.018;13.742;2023-04-24T07:24:15;98534.56;;;14.31;62.14
75699;BME280;64313;51.018;13.742;2023-04-24T07:26:40;98538.63;;;14.33;62.90
75699;BME280;64313;51.018;13.742;2023-04-24T07:29:06;98534.88;;;14.34;62.72
75699;BME280;64313;51.018;13.742;2023-04-24T07:31:31;98541.31;;;14.33;62.92
75699;BME280;64313;51.018;13.742;2023-04-24T07:33:57;98539.69;;;14.32;63.28
75699;BME280;64313;51.018;13.742;2023-04-24T07:36:23;98537.00;;;14.32;64.37
75699;BME280;64313;51.018;13.742;2023-04-24T07:38:49;98538.63;;;14.33;63.54
75699;BME280;64313;51.018;13.742;2023-04-24T07:41:14;98542.94;;;14.34;63.45
75699;BME280;64313;51.018;13.742;2023-04-24T07:43:41;98540.78;;;14.36;63.98
75699;BME280;64313;51.018;13.742;2023-04-24T07:46:07;98537.06;;;14.37;63.28
75699;BME280;64313;51.018;13.742;2023-04-24T07:48:32;98538.19;;;14.41;63.66
75699;BME280;64313;51.018;13.742;2023-04-24T07:50:58;98549.47;;;14.43;62.83
75699;BME280;64313;51.018;13.742;2023-04-24T07:53:23;98540.09;;;14.46;62.50
75699;BME280;64313;51.018;13.742;2023-04-24T07:55:49;98537.16;;;14.47;62.81
75699;BME280;64313;51.018;13.742;2023-04-24T07:58:14;98541.22;;;14.50;62.33
75699;BME280;64313;51.018;13.742;2023-04-24T08:00:40;98553.34;;;14.53;62.29
75699;BME280;64313;51.018;13.742;2023-04-24T08:03:05;98553.66;;;14.56;62.17
75699;BME280;64313;51.018;13.742;2023-04-24T08:05:31;98552.09;;;14.60;61.81
75699;BME280;64313;51.018;13.742;2023-04-24T08:07:56;98545.69;;;14.66;61.49
75699;BME280;64313;51.018;13.742;2023-04-24T08:10:22;98538.75;;;14.70;61.30
75699;BME280;64313;51.018;13.742;2023-04-24T08:12:48;98538.00;;;14.75;61.43
75699;BME280;64313;51.018;13.742;2023-04-24T08:15:13;98542.03;;;14.78;61.18
75699;BME280;64313;51.018;13.742;2023-04-24T08:17:38;98540.47;;;14.82;61.44
75699;BME280;64313;51.018;13.742;2023-04-24T08:20:05;98553.41;;;14.85;61.47
75699;BME280;64313;51.018;13.742;2023-04-24T08:22:31;98547.50;;;14.88;61.71
75699;BME280;64313;51.018;13.742;2023-04-24T08:24:56;98543.25;;;14.92;60.79
75699;BME280;64313;51.018;13.742;2023-04-24T08:27:23;98549.16;;;14.94;60.03
75699;BME280;64313;51.018;13.742;2023-04-24T08:29:49;98549.22;;;14.99;59.67
75699;BME280;64313;51.018;13.742;2023-04-24T08:32:14;98549.78;;;15.01;60.42
75699;BME280;64313;51.018;13.742;2023-04-24T08:34:39;98555.19;;;15.06;60.06
75699;BME280;64313;51.018;13.742;2023-04-24T08:37:05;98549.31;;;15.09;59.83
75699;BME280;64313;51.018;13.742;2023-04-24T08:39:30;98550.41;;;15.13;59.09
75699;BME280;64313;51.018;13.742;2023-04-24T08:41:56;98552.56;;;15.17;60.52
75699;BME280;64313;51.018;13.742;2023-04-24T08:44:21;98563.66;;;15.20;59.13
75699;BME280;64313;51.018;13.742;2023-04-24T08:46:50;98558.00;;;15.22;57.72
75699;BME280;64313;51.018;13.742;2023-04-24T08:49:17;98557.75;;;15.23;58.48
75699;BME280;64313;51.018;13.742;2023-04-24T08:51:43;98553.97;;;15.24;57.53
75699;BME280;64313;51.018;13.742;2023-04-24T08:54:09;98558.31;;;15.25;57.85
75699;BME280;64313;51.018;13.742;2023-04-24T08:56:36;98554.81;;;15.25;58.11
75699;BME280;64313;51.018;13.742;2023-04-24T08:59:05;98550.78;;;15.27;57.62
75699;BME280;64313;51.018;13.742;2023-04-24T09:01:32;98554.00;;;15.29;57.75
75699;BME280;64313;51.018;13.742;2023-04-24T09:04:02;98560.00;;;15.36;57.66
75699;BME280;64313;51.018;13.742;2023-04-24T09:06:29;98554.91;;;15.40;57.04
75699;BME280;64313;51.018;13.742;2023-04-24T09:08:56;98552.50;;;15.44;56.85
75699;BME280;64313;51.018;13.742;2023-04-24T09:11:22;98557.38;;;15.47;54.97
75699;BME280;64313;51.018;13.742;2023-04-24T09:13:49;98555.78;;;15.51;56.54
75699;BME280;64313;51.018;13.742;2023-04-24T09:16:16;98560.66;;;15.54;54.73
75699;BME280;64313;51.018;13.742;2023-04-24T09:18:41;98556.91;;;15.55;55.79
75699;BME280;64313;51.018;13.742;2023-04-24T09:21:08;98566.88;;;15.59;55.17
75699;BME280;64313;51.018;13.742;2023-04-24T09:23:33;98543.19;;;15.62;55.44
75699;BME280;64313;51.018;13.742;2023-04-24T09:26:00;98550.22;;;15.63;54.21
75699;BME280;64313;51.018;13.742;2023-04-24T09:28:39;98552.63;;;15.64;54.35
75699;BME280;64313;51.018;13.742;2023-04-24T09:31:23;98550.72;;;15.65;53.86
75699;BME280;64313;51.018;13.742;2023-04-24T09:33:59;98559.66;;;15.65;54.57
75699;BME280;64313;51.018;13.742;2023-04-24T09:36:32;98553.44;;;15.65;54.15
75699;BME280;64313;51.018;13.742;2023-04-24T09:39:05;98553.97;;;15.67;53.51
75699;BME280;64313;51.018;13.742;2023-04-24T09:41:33;98551.28;;;15.67;54.20
75699;BME280;64313;51.018;13.742;2023-04-24T09:44:14;98563.47;;;15.69;54.36
75699;BME280;64313;51.018;13.742;2023-04-24T09:46:41;98548.94;;;15.70;54.69
75699;BME280;64313;51.018;13.742;2023-04-24T09:49:09;98553.78;;;15.73;53.90
75699;BME280;64313;51.018;13.742;2023-04-24T09:51:36;98548.41;;;15.73;54.57
75699;BME280;64313;51.018;13.742;2023-04-24T09:54:03;98548.97;;;15.75;54.80
75699;BME280;64313;51.018;13.742;2023-04-24T09:56:32;98552.47;;;15.76;54.64
75699;BME280;64313;51.018;13.742;2023-04-24T09:59:07;98562.16;;;15.77;53.97
75699;BME280;64313;51.018;13.742;2023-04-24T10:01:33;98558.09;;;15.74;53.34
75699;BME280;64313;51.018;13.742;2023-04-24T10:03:59;98555.41;;;15.74;54.31
75699;BME280;64313;51.018;13.742;2023-04-24T10:06:33;98552.69;;;15.69;52.50
75699;BME280;64313;51.018;13.742;2023-04-24T10:08:59;98555.13;;;15.71;53.88
75699;BME280;64313;51.018;13.742;2023-04-24T10:11:26;98557.47;;;15.67;52.92
75699;BME280;64313;51.018;13.742;2023-04-24T10:13:52;98554.78;;;15.67;53.55
75699;BME280;64313;51.018;13.742;2023-04-24T10:16:18;98553.72;;;15.68;53.21
75699;BME280;64313;51.018;13.742;2023-04-24T10:18:44;98556.44;;;15.68;53.59
75699;BME280;64313;51.018;13.742;2023-04-24T10:21:10;98547.28;;;15.69;53.08
75699;BME280;64313;51.018;13.742;2023-04-24T10:23:35;98542.72;;;15.70;53.73
75699;BME280;64313;51.018;13.742;2023-04-24T10:26:01;98543.81;;;15.74;53.75
75699;BME280;64313;51.018;13.742;2023-04-24T10:28:27;98543.03;;;15.78;53.97
75699;BME280;64313;51.018;13.742;2023-04-24T10:30:54;98546.84;;;15.83;54.13
75699;BME280;64313;51.018;13.742;2023-04-24T10:33:21;98544.41;;;15.86;53.90
75699;BME280;64313;51.018;13.742;2023-04-24T10:35:50;98539.84;;;15.92;54.25
75699;BME280;64313;51.018;13.742;2023-04-24T10:38:21;98544.22;;;15.98;53.26
75699;BME280;64313;51.018;13.742;2023-04-24T10:40:49;98536.16;;;16.03;53.90
75699;BME280;64313;51.018;13.742;2023-04-24T10:43:17;98538.56;;;16.10;53.82
75699;BME280;64313;51.018;13.742;2023-04-24T10:46:00;98536.44;;;16.17;54.13
75699;BME280;64313;51.018;13.742;2023-04-24T10:48:26;98543.75;;;16.21;52.99
75699;BME280;64313;51.018;13.742;2023-04-24T10:50:52;98542.41;;;16.24;52.85
75699;BME280;64313;51.018;13.742;2023-04-24T10:53:23;98545.38;;;16.28;52.40
75699;BME280;64313;51.018;13.742;2023-04-24T10:56:06;98543.22;;;16.30;52.82
75699;BME280;64313;51.018;13.742;2023-04-24T10:58:37;98544.56;;;16.27;51.79
75699;BME280;64313;51.018;13.742;2023-04-24T11:01:03;98540.81;;;16.28;52.84
75699;BME280;64313;51.018;13.742;2023-04-24T11:03:32;98547.00;;;16.29;52.40
75699;BME280;64313;51.018;13.742;2023-04-24T11:06:08;98539.47;;;16.26;52.04
75699;BME280;64313;51.018;13.742;2023-04-24T11:08:44;98546.44;;;16.21;52.00
75699;BME280;64313;51.018;13.742;2023-04-24T11:11:13;98553.16;;;16.14;52.24
75699;BME280;64313;51.018;13.742;2023-04-24T11:16:30;98557.97;;;16.07;52.96
75699;BME280;64313;51.018;13.742;2023-04-24T11:19:09;98558.50;;;15.98;52.96
75699;BME280;64313;51.018;13.742;2023-04-24T11:24:30;98564.66;;;15.94;53.73
75699;BME280;64313;51.018;13.742;2023-04-24T11:29:39;98566.78;;;15.87;54.82
75699;BME280;64313;51.018;13.742;2023-04-24T11:32:40;98565.97;;;15.86;55.37
75699;BME280;64313;51.018;13.742;2023-04-24T11:37:41;98575.94;;;15.86;55.39
75699;BME280;64313;51.018;13.742;2023-04-24T11:40:09;98572.72;;;15.89;55.78
75699;BME280;64313;51.018;13.742;2023-04-24T11:42:43;98561.16;;;15.93;55.61
75699;BME280;64313;51.018;13.742;2023-04-24T11:45:09;98557.72;;;16.03;55.62
75699;BME280;64313;51.018;13.742;2023-04-24T11:47:35;98555.59;;;16.10;55.52
75699;BME280;64313;51.018;13.742;2023-04-24T11:50:01;98558.56;;;16.14;55.43
75699;BME280;64313;51.018;13.742;2023-04-24T11:52:27;98552.38;;;16.18;55.17
75699;BME280;64313;51.018;13.742;2023-04-24T11:54:53;98556.16;;;16.22;55.46
75699;BME280;64313;51.018;13.742;2023-04-24T11:57:22;98550.25;;;16.26;55.32
75699;BME280;64313;51.018;13.742;2023-04-24T11:59:49;98544.88;;;16.31;53.14
75699;BME280;64313;51.018;13.742;2023-04-24T12:02:23;98553.53;;;16.38;54.04
75699;BME280;64313;51.018;13.742;2023-04-24T12:04:48;98548.94;;;16.49;52.97
75699;BME280;64313;51.018;13.742;2023-04-24T12:07:13;98542.47;;;16.50;52.06
75699;BME280;64313;51.018;13.742;2023-04-24T12:09:57;98544.91;;;16.51;52.21
75699;BME280;64313;51.018;13.742;2023-04-24T12:12:25;98548.16;;;16.53;51.58
75699;BME280;64313;51.018;13.742;2023-04-24T12:14:58;98554.34;;;16.49;50.90
75699;BME280;64313;51.018;13.742;2023-04-24T12:17:30;98555.16;;;16.49;51.55
75699;BME280;64313;51.018;13.742;2023-04-24T12:20:01;98559.75;;;16.49;50.15
75699;BME280;64313;51.018;13.742;2023-04-24T12:22:27;98563.22;;;16.44;48.93
75699;BME280;64313;51.018;13.742;2023-04-24T12:25:11;98558.91;;;16.38;47.43
75699;BME280;64313;51.018;13.742;2023-04-24T12:27:37;98561.03;;;16.26;47.85
75699;BME280;64313;51.018;13.742;2023-04-24T12:30:05;98555.34;;;16.27;47.11
75699;BME280;64313;51.018;13.742;2023-04-24T12:32:30;98548.38;;;16.36;48.37
75699;BME280;64313;51.018;13.742;2023-04-24T12:34:56;98544.34;;;16.44;47.15
75699;BME280;64313;51.018;13.742;2023-04-24T12:37:26;98545.97;;;16.50;44.53
75699;BME280;64313;51.018;13.742;2023-04-24T12:40:08;98549.50;;;16.56;44.41
75699;BME280;64313;51.018;13.742;2023-04-24T12:42:35;98554.38;;;16.59;45.54
75699;BME280;64313;51.018;13.742;2023-04-24T12:45:04;98549.25;;;16.67;45.05
75699;BME280;64313;51.018;13.742;2023-04-24T12:47:30;98557.63;;;16.76;45.33
75699;BME280;64313;51.018;13.742;2023-04-24T12:49:56;98539.59;;;16.87;45.46
75699;BME280;64313;51.018;13.742;2023-04-24T12:52:22;98559.03;;;16.99;45.84
75699;BME280;64313;51.018;13.742;2023-04-24T12:54:49;98559.03;;;17.15;45.45
75699;BME280;64313;51.018;13.742;2023-04-24T12:57:16;98559.56;;;17.27;45.33
75699;BME280;64313;51.018;13.742;2023-04-24T12:59:41;98561.44;;;17.37;44.40
75699;BME280;64313;51.018;13.742;2023-04-24T13:02:06;98560.09;;;17.39;42.54